createdAt,value
2022-11-26T00:02:25.048Z,100936.83
2022-11-26T00:04:57.265Z,100938.70
2022-11-26T00:07:31.263Z,100939.95
2022-11-26T00:10:03.142Z,100935.81
2022-11-26T00:12:36.214Z,100936.93
2022-11-26T00:15:17.330Z,100937.15
2022-11-26T00:17:48.651Z,100938.30
2022-11-26T00:20:20.998Z,100937.77
2022-11-26T00:22:54.842Z,100937.89
2022-11-26T00:25:28.868Z,100937.15
2022-11-26T00:28:00.860Z,100939.91
2022-11-26T00:30:31.745Z,100941.20
2022-11-26T00:33:02.770Z,100941.79
2022-11-26T00:35:33.779Z,100941.16
2022-11-26T00:38:05.178Z,100944.16
2022-11-26T00:40:36.629Z,100944.45
2022-11-26T00:43:10.813Z,100948.16
2022-11-26T00:45:41.933Z,100948.83
2022-11-26T00:48:12.857Z,100949.48
2022-11-26T00:50:48.014Z,100946.70
2022-11-26T00:53:19.962Z,100948.55
2022-11-26T00:55:51.841Z,100951.22
2022-11-26T00:58:27.606Z,100954.11
2022-11-26T01:01:01.238Z,100952.64
2022-11-26T01:03:32.234Z,100954.01
2022-11-26T01:06:03.265Z,100956.88
2022-11-26T01:08:36.377Z,100959.83
2022-11-26T01:11:07.957Z,100963.30
2022-11-26T01:13:39.039Z,100961.89
2022-11-26T01:16:20.798Z,100959.30
2022-11-26T01:18:53.860Z,100959.02
2022-11-26T01:21:26.539Z,100959.65
2022-11-26T01:23:57.492Z,100957.18
2022-11-26T01:26:33.620Z,100957.16
2022-11-26T01:29:04.538Z,100961.73
2022-11-26T01:31:35.757Z,100960.25
2022-11-26T01:34:06.777Z,100956.42
2022-11-26T01:36:39.991Z,100962.06
2022-11-26T01:39:21.974Z,100964.98
2022-11-26T01:41:59.583Z,100966.39
2022-11-26T01:44:33.659Z,100971.02
2022-11-26T01:47:19.162Z,100974.11
2022-11-26T01:50:20.393Z,100974.34
2022-11-26T01:52:51.667Z,100972.88
2022-11-26T01:55:22.908Z,100968.80
2022-11-26T01:57:54.458Z,100967.77
2022-11-26T02:00:25.906Z,100969.64
2022-11-26T02:02:57.697Z,100972.98
2022-11-26T02:05:33.319Z,100975.02
2022-11-26T02:08:05.161Z,100974.53
2022-11-26T02:10:36.336Z,100973.01
2022-11-26T02:13:07.794Z,100978.09
2022-11-26T02:15:46.141Z,100976.27
2022-11-26T02:18:17.897Z,100979.19
2022-11-26T02:20:57.365Z,100980.07
2022-11-26T02:24:00.821Z,100982.59
2022-11-26T02:27:01.748Z,100979.05
2022-11-26T02:29:48.217Z,100983.17
2022-11-26T02:32:23.700Z,100983.02
2022-11-26T02:35:03.442Z,100986.29
2022-11-26T02:37:38.709Z,100988.53
2022-11-26T02:40:09.912Z,100986.39
2022-11-26T02:42:40.923Z,100987.76
2022-11-26T02:45:15.512Z,100987.92
2022-11-26T02:47:50.125Z,100986.17
2022-11-26T02:50:25.377Z,100984.92
2022-11-26T02:52:56.512Z,100983.85
2022-11-26T02:55:31.148Z,100984.13
2022-11-26T02:58:02.927Z,100981.88
2022-11-26T03:00:36.207Z,100985.10
2022-11-26T03:03:11.535Z,100985.77
2022-11-26T03:05:44.216Z,100984.21
2022-11-26T03:08:15.353Z,100985.18
2022-11-26T03:10:46.366Z,100983.79
2022-11-26T03:13:17.363Z,100988.85
2022-11-26T03:15:48.321Z,100989.70
2022-11-26T03:18:19.367Z,100989.04
2022-11-26T03:20:52.539Z,100993.60
2022-11-26T03:23:23.765Z,100994.63
2022-11-26T03:25:54.631Z,100996.64
2022-11-26T03:28:25.705Z,100993.73
2022-11-26T03:30:56.548Z,100990.69
2022-11-26T03:33:27.561Z,100996.10
2022-11-26T03:35:58.468Z,100996.41
2022-11-26T03:38:29.310Z,100996.05
2022-11-26T03:41:02.758Z,101001.64
2022-11-26T03:43:33.752Z,101003.67
2022-11-26T03:46:04.705Z,101002.80
2022-11-26T03:48:35.601Z,101006.69
2022-11-26T03:51:06.769Z,101010.58
2022-11-26T03:53:37.816Z,101010.03
2022-11-26T03:56:09.961Z,101012.77
2022-11-26T03:58:40.921Z,101014.24
2022-11-26T04:01:13.212Z,101018.46
2022-11-26T04:03:44.139Z,101015.40
2022-11-26T04:06:15.136Z,101019.16
2022-11-26T04:08:46.311Z,101020.17
2022-11-26T04:11:17.250Z,101023.02
2022-11-26T04:13:48.138Z,101024.36
2022-11-26T04:16:19.153Z,101025.36
2022-11-26T04:18:50.064Z,101024.36
2022-11-26T04:21:21.029Z,101028.98
2022-11-26T04:23:52.030Z,101031.73
2022-11-26T04:26:22.960Z,101032.89
2022-11-26T04:28:53.850Z,101033.02
2022-11-26T04:31:25.035Z,101033.89
2022-11-26T04:33:55.972Z,101035.70
2022-11-26T04:36:27.523Z,101041.11
2022-11-26T04:38:58.667Z,101037.85
2022-11-26T04:41:29.593Z,101042.41
2022-11-26T04:44:00.482Z,101042.05
2022-11-26T04:46:31.415Z,101046.29
2022-11-26T04:49:03.398Z,101052.19
2022-11-26T04:51:34.446Z,101056.40
2022-11-26T04:54:09.926Z,101056.52
2022-11-26T04:56:43.833Z,101060.88
2022-11-26T04:59:14.586Z,101056.44
2022-11-26T05:01:45.538Z,101058.11
2022-11-26T05:04:16.440Z,101063.67
2022-11-26T05:06:47.222Z,101062.47
2022-11-26T05:09:18.024Z,101060.09
2022-11-26T05:11:48.799Z,101062.61
2022-11-26T05:14:19.532Z,101061.27
2022-11-26T05:16:50.346Z,101061.95
2022-11-26T05:19:21.169Z,101064.16
2022-11-26T05:21:51.933Z,101067.23
2022-11-26T05:24:22.688Z,101073.98
2022-11-26T05:26:56.943Z,101070.58
2022-11-26T05:29:28.256Z,101076.29
2022-11-26T05:31:59.025Z,101075.91
2022-11-26T05:34:29.933Z,101079.07
2022-11-26T05:37:00.693Z,101080.04
2022-11-26T05:39:31.582Z,101081.73
2022-11-26T05:42:07.648Z,101083.55
2022-11-26T05:44:40.108Z,101087.09
2022-11-26T05:47:11.159Z,101087.21
2022-11-26T05:49:41.924Z,101089.26
2022-11-26T05:52:12.722Z,101099.20
2022-11-26T05:54:43.634Z,101098.34
2022-11-26T05:57:14.781Z,101103.51
2022-11-26T05:59:45.603Z,101110.45
2022-11-26T06:02:16.550Z,101111.44
2022-11-26T06:04:48.806Z,101116.33
2022-11-26T06:07:19.654Z,101124.08
2022-11-26T06:09:50.538Z,101124.55
2022-11-26T06:12:21.318Z,101125.83
2022-11-26T06:14:52.074Z,101122.08
2022-11-26T06:17:22.878Z,101126.48
2022-11-26T06:19:53.626Z,101128.45
2022-11-26T06:22:24.416Z,101126.04
2022-11-26T06:24:55.300Z,101130.08
2022-11-26T06:27:26.062Z,101134.79
2022-11-26T06:29:56.790Z,101139.66
2022-11-26T06:32:27.554Z,101137.91
2022-11-26T06:34:58.605Z,101144.12
2022-11-26T06:37:29.424Z,101143.20
2022-11-26T06:40:00.189Z,101149.98
2022-11-26T06:42:31.038Z,101152.49
2022-11-26T06:45:01.787Z,101150.67
2022-11-26T06:47:32.496Z,101149.58
2022-11-26T06:50:07.797Z,101152.24
2022-11-26T06:52:41.384Z,101157.13
2022-11-26T06:55:13.116Z,101158.34
2022-11-26T06:57:43.868Z,101160.14
2022-11-26T07:00:16.429Z,101163.16
2022-11-26T07:02:47.258Z,101165.23
2022-11-26T07:05:18.270Z,101164.89
2022-11-26T07:07:49.183Z,101169.72
2022-11-26T07:10:20.544Z,101177.60
2022-11-26T07:12:51.357Z,101180.91
2022-11-26T07:15:22.301Z,101187.61
2022-11-26T07:17:53.172Z,101182.83
2022-11-26T07:20:23.945Z,101179.56
2022-11-26T07:22:55.241Z,101182.59
2022-11-26T07:25:26.031Z,101186.30
2022-11-26T07:27:56.902Z,101184.13
2022-11-26T07:30:27.814Z,101191.28
2022-11-26T07:32:58.637Z,101195.51
2022-11-26T07:35:29.471Z,101203.61
2022-11-26T07:38:00.737Z,101205.73
2022-11-26T07:40:31.518Z,101212.49
2022-11-26T07:43:03.298Z,101218.41
2022-11-26T07:45:36.838Z,101221.47
2022-11-26T07:48:10.411Z,101227.28
2022-11-26T07:50:46.989Z,101229.02
2022-11-26T07:53:17.844Z,101227.34
2022-11-26T07:55:48.708Z,101228.75
2022-11-26T07:58:19.517Z,101236.48
2022-11-26T08:00:54.585Z,101236.08
2022-11-26T08:03:25.926Z,101240.55
2022-11-26T08:05:56.759Z,101240.64
2022-11-26T08:08:27.557Z,101240.48
2022-11-26T08:10:58.701Z,101239.63
2022-11-26T08:13:29.556Z,101241.44
2022-11-26T08:16:00.390Z,101243.24
2022-11-26T08:18:31.633Z,101246.60
2022-11-26T08:21:02.437Z,101245.55
2022-11-26T08:23:34.374Z,101250.80
2022-11-26T08:26:33.564Z,101250.08
2022-11-26T08:29:02.086Z,101248.55
2022-11-26T08:31:32.970Z,101252.94
2022-11-26T08:34:04.459Z,101254.48
2022-11-26T08:36:35.333Z,101254.53
2022-11-26T08:39:08.479Z,101261.02
2022-11-26T08:41:39.352Z,101263.45
2022-11-26T08:44:10.301Z,101265.28
2022-11-26T08:46:44.192Z,101265.45
2022-11-26T08:49:17.228Z,101271.19
2022-11-26T08:51:49.838Z,101274.71
2022-11-26T08:54:21.160Z,101275.38
2022-11-26T08:56:52.197Z,101275.23
2022-11-26T08:59:24.342Z,101275.80
2022-11-26T09:01:55.864Z,101276.52
2022-11-26T09:04:27.332Z,101275.71
2022-11-26T09:06:58.418Z,101273.71
2022-11-26T09:09:30.133Z,101275.77
2022-11-26T09:12:03.747Z,101276.11
2022-11-26T09:14:41.411Z,101275.28
2022-11-26T09:17:14.388Z,101278.87
2022-11-26T09:19:45.532Z,101286.92
2022-11-26T09:22:16.456Z,101283.65
2022-11-26T09:24:47.258Z,101286.39
2022-11-26T09:27:18.247Z,101290.69
2022-11-26T09:29:50.528Z,101286.70
2022-11-26T09:32:26.168Z,101285.50
2022-11-26T09:35:00.725Z,101287.54
2022-11-26T09:37:33.499Z,101289.26
2022-11-26T09:40:04.656Z,101293.41
2022-11-26T09:42:51.455Z,101297.42
2022-11-26T09:45:34.644Z,101290.48
2022-11-26T09:48:06.667Z,101287.96
2022-11-26T09:50:40.639Z,101286.44
2022-11-26T09:53:19.183Z,101284.36
2022-11-26T09:55:53.193Z,101286.38
2022-11-26T09:58:31.163Z,101287.81
2022-11-26T10:01:05.455Z,101289.16
2022-11-26T10:03:38.506Z,101286.31
2022-11-26T10:06:19.675Z,101295.15
2022-11-26T10:09:19.301Z,101291.11
2022-11-26T10:12:00.082Z,101293.30
2022-11-26T10:14:46.038Z,101302.86
2022-11-26T10:17:33.684Z,101304.72
2022-11-26T10:20:42.642Z,101305.05
2022-11-26T10:23:23.364Z,101308.64
2022-11-26T10:26:01.383Z,101310.16
2022-11-26T10:28:35.631Z,101310.13
2022-11-26T10:31:14.582Z,101306.45
2022-11-26T10:33:52.142Z,101310.08
2022-11-26T10:36:27.250Z,101309.77
2022-11-26T10:38:57.379Z,101311.48
2022-11-26T10:41:36.358Z,101313.69
2022-11-26T10:44:40.910Z,101313.02
2022-11-26T10:47:32.907Z,101310.48
2022-11-26T10:53:23.485Z,101312.61
2022-11-26T10:55:58.881Z,101314.52
2022-11-26T10:58:32.637Z,101313.71
2022-11-26T11:01:05.826Z,101313.75
2022-11-26T11:06:45.409Z,101321.30
2022-11-26T11:09:32.522Z,101319.89
2022-11-26T11:12:23.674Z,101327.49
2022-11-26T11:14:55.677Z,101323.55
2022-11-26T11:17:35.315Z,101328.21
2022-11-26T11:20:27.370Z,101329.27
2022-11-26T11:23:08.124Z,101331.33
2022-11-26T11:25:42.357Z,101332.87
2022-11-26T11:28:21.084Z,101336.09
2022-11-26T11:31:04.127Z,101338.59
2022-11-26T11:33:36.576Z,101342.55
2022-11-26T11:36:21.972Z,101341.20
2022-11-26T11:38:57.201Z,101346.22
2022-11-26T11:41:32.275Z,101348.89
2022-11-26T11:44:09.238Z,101350.91
2022-11-26T11:47:01.529Z,101349.23
2022-11-26T11:50:01.102Z,101349.96
2022-11-26T11:52:42.903Z,101348.63
2022-11-26T11:55:26.149Z,101353.98
2022-11-26T11:58:14.622Z,101355.48
2022-11-26T12:00:53.539Z,101354.95
2022-11-26T12:03:56.431Z,101358.33
2022-11-26T12:06:40.444Z,101357.77
2022-11-26T12:09:21.050Z,101361.61
2022-11-26T12:11:59.425Z,101356.96
2022-11-26T12:14:35.982Z,101358.80
2022-11-26T12:17:14.528Z,101362.29
2022-11-26T12:19:53.163Z,101364.19
2022-11-26T12:22:28.064Z,101369.29
2022-11-26T12:25:03.861Z,101373.86
2022-11-26T12:27:41.718Z,101372.98
2022-11-26T12:30:18.913Z,101373.02
2022-11-26T12:32:54.160Z,101371.17
2022-11-26T12:35:28.916Z,101367.52
2022-11-26T12:38:03.590Z,101370.14
2022-11-26T12:40:39.461Z,101373.77
2022-11-26T12:43:17.679Z,101372.49
2022-11-26T12:45:55.072Z,101376.44
2022-11-26T12:48:34.746Z,101382.88
2022-11-26T12:51:16.297Z,101383.84
2022-11-26T12:53:53.382Z,101384.89
2022-11-26T12:56:32.483Z,101389.40
2022-11-26T12:59:11.836Z,101386.92
2022-11-26T13:01:43.357Z,101386.65
2022-11-26T13:04:36.607Z,101389.73
2022-11-26T13:07:21.954Z,101390.14
2022-11-26T13:10:05.233Z,101391.02
2022-11-26T13:12:46.837Z,101396.20
2022-11-26T13:15:26.454Z,101397.61
2022-11-26T13:18:00.640Z,101399.56
2022-11-26T13:20:54.656Z,101406.45
2022-11-26T13:23:43.233Z,101406.52
2022-11-26T13:26:34.893Z,101402.22
2022-11-26T13:29:24.902Z,101405.13
2022-11-26T13:32:14.811Z,101410.14
2022-11-26T13:35:01.937Z,101409.14
2022-11-26T13:37:48.837Z,101412.73
2022-11-26T13:40:53.495Z,101414.54
2022-11-26T13:43:54.352Z,101415.66
2022-11-26T13:46:29.516Z,101417.27
2022-11-26T13:49:08.025Z,101419.51
2022-11-26T13:51:43.064Z,101420.38
2022-11-26T13:54:20.047Z,101421.17
2022-11-26T13:56:57.843Z,101422.98
2022-11-26T13:59:30.144Z,101434.91
2022-11-26T14:02:21.021Z,101437.80
2022-11-26T14:04:55.184Z,101443.24
2022-11-26T14:07:26.130Z,101448.90
2022-11-26T14:10:00.157Z,101452.38
2022-11-26T14:13:01.911Z,101455.06
2022-11-26T14:15:56.979Z,101452.02
2022-11-26T14:19:07.672Z,101454.31
2022-11-26T14:22:03.824Z,101456.89
2022-11-26T14:24:50.563Z,101455.29
2022-11-26T14:27:23.941Z,101457.88
2022-11-26T14:30:02.588Z,101457.45
2022-11-26T14:32:39.288Z,101454.08
2022-11-26T14:35:22.207Z,101458.88
2022-11-26T14:37:59.440Z,101460.09
2022-11-26T14:40:32.925Z,101464.02
2022-11-26T14:43:20.046Z,101463.99
2022-11-26T14:46:07.371Z,101465.20
2022-11-26T14:48:45.693Z,101470.21
2022-11-26T14:51:23.251Z,101469.61
2022-11-26T14:53:54.927Z,101471.52
2022-11-26T14:56:27.411Z,101474.50
2022-11-26T14:59:02.958Z,101475.11
2022-11-26T15:01:35.164Z,101477.05
2022-11-26T15:04:08.733Z,101477.23
2022-11-26T15:06:43.790Z,101474.52
2022-11-26T15:09:17.345Z,101471.79
2022-11-26T15:11:52.357Z,101472.97
2022-11-26T15:14:29.471Z,101476.73
2022-11-26T15:17:02.499Z,101473.79
2022-11-26T15:19:38.427Z,101474.69
2022-11-26T15:22:19.917Z,101478.77
2022-11-26T15:24:53.811Z,101481.64
2022-11-26T15:27:38.980Z,101481.45
2022-11-26T15:30:22.572Z,101482.68
2022-11-26T15:33:02.316Z,101485.16
2022-11-26T15:35:34.147Z,101483.80
2022-11-26T15:38:06.999Z,101485.87
2022-11-26T15:40:48.260Z,101485.23
2022-11-26T15:43:27.532Z,101488.59
2022-11-26T15:46:04.526Z,101490.33
2022-11-26T15:48:56.196Z,101493.23
2022-11-26T15:51:42.952Z,101494.88
2022-11-26T15:54:24.167Z,101499.41
2022-11-26T15:56:58.441Z,101500.42
2022-11-26T15:59:33.979Z,101505.73
2022-11-26T16:02:18.780Z,101509.52
2022-11-26T16:04:52.267Z,101510.63
2022-11-26T16:07:25.788Z,101508.91
2022-11-26T16:10:22.046Z,101509.07
2022-11-26T16:13:23.266Z,101509.46
2022-11-26T16:16:01.126Z,101504.23
2022-11-26T16:18:38.054Z,101502.69
2022-11-26T16:21:17.552Z,101504.96
2022-11-26T16:23:55.122Z,101507.13
2022-11-26T16:26:27.175Z,101509.77
2022-11-26T16:28:58.057Z,101511.60
2022-11-26T16:31:30.115Z,101515.52
2022-11-26T16:34:08.116Z,101515.85
2022-11-26T16:36:44.422Z,101518.04
2022-11-26T16:39:16.777Z,101518.18
2022-11-26T16:41:47.784Z,101514.73
2022-11-26T16:44:18.947Z,101513.47
2022-11-26T16:46:53.486Z,101517.31
2022-11-26T16:49:26.009Z,101522.60
2022-11-26T16:51:57.872Z,101523.27
2022-11-26T16:54:28.812Z,101528.84
2022-11-26T16:56:59.804Z,101532.88
2022-11-26T16:59:31.371Z,101535.52
2022-11-26T17:02:02.286Z,101534.74
2022-11-26T17:04:33.245Z,101536.89
2022-11-26T17:07:04.302Z,101536.23
2022-11-26T17:09:35.996Z,101541.39
2022-11-26T17:12:14.411Z,101544.08
2022-11-26T17:14:45.814Z,101543.50
2022-11-26T17:17:29.227Z,101541.93
2022-11-26T17:20:00.362Z,101548.46
2022-11-26T17:22:31.586Z,101548.59
2022-11-26T17:25:02.628Z,101550.40
2022-11-26T17:27:34.849Z,101550.43
2022-11-26T17:30:07.689Z,101555.02
2022-11-26T17:32:38.568Z,101561.23
2022-11-26T17:35:10.487Z,101565.36
2022-11-26T17:37:42.099Z,101569.53
2022-11-26T17:40:19.277Z,101569.68
2022-11-26T17:42:51.268Z,101568.79
2022-11-26T17:45:22.826Z,101572.00
2022-11-26T17:47:53.773Z,101566.77
2022-11-26T17:50:27.432Z,101570.63
2022-11-26T17:52:58.607Z,101567.44
2022-11-26T17:55:29.960Z,101569.75
2022-11-26T17:58:01.126Z,101568.19
2022-11-26T18:00:32.829Z,101564.70
2022-11-26T18:03:03.732Z,101564.90
2022-11-26T18:05:37.900Z,101566.80
2022-11-26T18:08:11.822Z,101566.92
2022-11-26T18:10:43.348Z,101570.56
2022-11-26T18:13:14.422Z,101573.97
2022-11-26T18:15:45.835Z,101568.74
2022-11-26T18:18:17.801Z,101566.80
2022-11-26T18:20:49.238Z,101568.09
2022-11-26T18:23:20.654Z,101572.73
2022-11-26T18:25:52.330Z,101571.79
2022-11-26T18:28:23.644Z,101573.74
2022-11-26T18:31:00.406Z,101576.83
2022-11-26T18:33:31.501Z,101579.19
2022-11-26T18:36:02.627Z,101583.16
2022-11-26T18:38:40.308Z,101588.95
2022-11-26T18:41:11.578Z,101591.40
2022-11-26T18:43:43.362Z,101593.10
2022-11-26T18:46:17.056Z,101596.03
2022-11-26T18:48:50.014Z,101593.64
2022-11-26T18:51:21.448Z,101595.14
2022-11-26T18:53:52.795Z,101597.01
2022-11-26T18:56:24.685Z,101595.45
2022-11-26T18:58:56.746Z,101595.46
2022-11-26T19:01:30.159Z,101594.29
2022-11-26T19:04:05.281Z,101590.76
2022-11-26T19:06:35.296Z,101596.92
2022-11-26T19:09:10.848Z,101595.88
2022-11-26T19:11:42.011Z,101600.97
2022-11-26T19:14:14.713Z,101604.02
2022-11-26T19:16:49.330Z,101603.04
2022-11-26T19:19:20.826Z,101602.58
2022-11-26T19:21:56.642Z,101608.87
2022-11-26T19:24:30.898Z,101607.77
2022-11-26T19:27:02.009Z,101610.48
2022-11-26T19:29:32.964Z,101615.58
2022-11-26T19:32:04.105Z,101619.84
2022-11-26T19:34:35.203Z,101624.07
2022-11-26T19:37:07.852Z,101621.73
2022-11-26T19:39:39.582Z,101631.19
2022-11-26T19:42:10.761Z,101636.29
2022-11-26T19:44:41.662Z,101633.56
2022-11-26T19:47:12.760Z,101637.10
2022-11-26T19:49:43.874Z,101634.01
2022-11-26T19:52:14.773Z,101636.42
2022-11-26T19:54:45.958Z,101638.61
2022-11-26T19:57:17.117Z,101633.51
2022-11-26T19:59:48.426Z,101636.33
2022-11-26T20:02:19.356Z,101632.79
2022-11-26T20:04:50.475Z,101631.59
2022-11-26T20:07:21.648Z,101628.22
2022-11-26T20:09:54.610Z,101635.51
2022-11-26T20:12:25.719Z,101640.78
2022-11-26T20:14:57.118Z,101638.23
2022-11-26T20:17:28.290Z,101639.80
2022-11-26T20:19:59.368Z,101642.42
2022-11-26T20:22:30.600Z,101648.88
2022-11-26T20:25:01.415Z,101652.34
2022-11-26T20:27:32.546Z,101652.88
2022-11-26T20:30:05.017Z,101658.66
2022-11-26T20:32:37.598Z,101657.33
2022-11-26T20:35:10.722Z,101656.30
2022-11-26T20:37:41.686Z,101653.44
2022-11-26T20:40:13.413Z,101652.95
2022-11-26T20:42:45.928Z,101656.00
2022-11-26T20:45:17.028Z,101652.08
2022-11-26T20:47:48.124Z,101654.09
2022-11-26T20:50:19.854Z,101652.17
2022-11-26T20:52:50.638Z,101653.56
2022-11-26T20:55:22.224Z,101656.02
2022-11-26T20:57:54.028Z,101658.74
2022-11-26T21:00:27.707Z,101655.76
2022-11-26T21:03:00.822Z,101651.95
2022-11-26T21:05:34.226Z,101653.38
2022-11-26T21:08:05.355Z,101651.88
2022-11-26T21:10:36.392Z,101649.71
2022-11-26T21:13:07.357Z,101650.55
2022-11-26T21:15:40.692Z,101646.63
2022-11-26T21:18:12.248Z,101647.23
2022-11-26T21:20:44.702Z,101649.39
2022-11-26T21:23:16.084Z,101651.65
2022-11-26T21:25:47.256Z,101648.99
2022-11-26T21:28:20.062Z,101648.27
2022-11-26T21:30:51.217Z,101652.70
2022-11-26T21:33:22.593Z,101652.88
2022-11-26T21:35:53.884Z,101657.43
2022-11-26T21:38:26.768Z,101660.64
2022-11-26T21:40:57.872Z,101662.40
2022-11-26T21:43:28.651Z,101660.23
2022-11-26T21:46:04.193Z,101665.15
2022-11-26T21:48:36.074Z,101667.09
2022-11-26T21:51:10.550Z,101668.88
2022-11-26T21:53:41.508Z,101673.36
2022-11-26T21:56:16.513Z,101674.61
2022-11-26T21:58:47.891Z,101671.41
2022-11-26T22:01:24.691Z,101674.06
2022-11-26T22:03:59.677Z,101676.27
2022-11-26T22:06:31.563Z,101678.41
2022-11-26T22:09:03.088Z,101677.15
2022-11-26T22:11:36.799Z,101676.64
2022-11-26T22:14:08.892Z,101679.20
2022-11-26T22:16:40.219Z,101683.14
2022-11-26T22:19:11.604Z,101683.53
2022-11-26T22:21:43.800Z,101683.88
2022-11-26T22:24:17.354Z,101687.63
2022-11-26T22:26:48.957Z,101687.88
2022-11-26T22:29:21.025Z,101692.57
2022-11-26T22:31:51.975Z,101694.04
2022-11-26T22:34:24.671Z,101698.07
2022-11-26T22:36:55.630Z,101696.36
2022-11-26T22:39:26.570Z,101695.55
2022-11-26T22:41:57.414Z,101698.08
2022-11-26T22:44:28.282Z,101699.42
2022-11-26T22:46:59.284Z,101703.02
2022-11-26T22:49:30.296Z,101701.28
2022-11-26T22:52:01.166Z,101698.69
2022-11-26T22:54:32.323Z,101703.23
2022-11-26T22:57:03.208Z,101702.70
2022-11-26T22:59:34.092Z,101700.58
2022-11-26T23:02:04.949Z,101696.75
2022-11-26T23:04:35.873Z,101698.33
2022-11-26T23:07:06.880Z,101696.38
2022-11-26T23:09:41.232Z,101696.82
2022-11-26T23:12:14.742Z,101700.07
2022-11-26T23:14:45.564Z,101699.90
2022-11-26T23:17:16.388Z,101699.02
2022-11-26T23:19:47.232Z,101700.98
2022-11-26T23:22:18.102Z,101697.91
2022-11-26T23:24:49.086Z,101694.82
2022-11-26T23:27:20.058Z,101694.44
2022-11-26T23:29:51.091Z,101693.09
2022-11-26T23:32:22.986Z,101693.09
2022-11-26T23:34:53.824Z,101693.05
2022-11-26T23:37:24.946Z,101687.48
2022-11-26T23:39:55.751Z,101687.90
2022-11-26T23:42:27.168Z,101683.31
2022-11-26T23:44:58.054Z,101686.96
2022-11-26T23:47:28.982Z,101691.94
2022-11-26T23:50:01.099Z,101690.63
2022-11-26T23:52:32.411Z,101690.94
2022-11-26T23:55:03.326Z,101686.70
2022-11-26T23:57:34.218Z,101688.93
